sensor_id;sensor_type;location;lat;lon;timestamp;pressure;altitude;pressure_sealevel;temperature
68012;BMP180;54794;48.348;7.878;2024-01-07T00:02:26;98524.00;;;6.60
68012;BMP180;54794;48.348;7.878;2024-01-07T00:05:16;98518.00;;;6.50
68012;BMP180;54794;48.348;7.878;2024-01-07T00:08:28;98520.00;;;6.50
68012;BMP180;54794;48.348;7.878;2024-01-07T00:11:30;98529.00;;;6.50
68012;BMP180;54794;48.348;7.878;2024-01-07T00:14:08;98515.00;;;6.40
68012;BMP180;54794;48.348;7.878;2024-01-07T00:16:58;98539.00;;;6.40
68012;BMP180;54794;48.348;7.878;2024-01-07T00:19:33;98529.00;;;6.30
68012;BMP180;54794;48.348;7.878;2024-01-07T00:22:13;98539.00;;;6.30
68012;BMP180;54794;48.348;7.878;2024-01-07T00:25:03;98541.00;;;6.40
68012;BMP180;54794;48.348;7.878;2024-01-07T00:28:07;98530.00;;;6.50
68012;BMP180;54794;48.348;7.878;2024-01-07T00:31:19;98540.00;;;6.40
68012;BMP180;54794;48.348;7.878;2024-01-07T00:34:13;98537.00;;;6.40
68012;BMP180;54794;48.348;7.878;2024-01-07T00:36:57;98539.00;;;6.30
68012;BMP180;54794;48.348;7.878;2024-01-07T00:40:23;98537.00;;;6.40
68012;BMP180;54794;48.348;7.878;2024-01-07T00:43:34;98534.00;;;6.60
68012;BMP180;54794;48.348;7.878;2024-01-07T00:47:01;98539.00;;;6.10
68012;BMP180;54794;48.348;7.878;2024-01-07T00:49:49;98538.00;;;6.20
68012;BMP180;54794;48.348;7.878;2024-01-07T00:52:31;98537.00;;;6.40
68012;BMP180;54794;48.348;7.878;2024-01-07T00:55:32;98537.00;;;6.30
68012;BMP180;54794;48.348;7.878;2024-01-07T00:58:30;98545.00;;;6.30
68012;BMP180;54794;48.348;7.878;2024-01-07T01:01:29;98546.00;;;6.30
68012;BMP180;54794;48.348;7.878;2024-01-07T01:04:20;98541.00;;;6.30
68012;BMP180;54794;48.348;7.878;2024-01-07T01:06:52;98543.00;;;6.20
68012;BMP180;54794;48.348;7.878;2024-01-07T01:09:41;98548.00;;;6.30
68012;BMP180;54794;48.348;7.878;2024-01-07T01:12:36;98547.00;;;6.10
68012;BMP180;54794;48.348;7.878;2024-01-07T01:15:14;98549.00;;;6.30
68012;BMP180;54794;48.348;7.878;2024-01-07T01:17:58;98550.00;;;6.10
68012;BMP180;54794;48.348;7.878;2024-01-07T01:20:36;98551.00;;;6.20
68012;BMP180;54794;48.348;7.878;2024-01-07T01:23:28;98555.00;;;6.40
68012;BMP180;54794;48.348;7.878;2024-01-07T01:26:14;98554.00;;;6.30
68012;BMP180;54794;48.348;7.878;2024-01-07T01:28:53;98554.00;;;6.30
68012;BMP180;54794;48.348;7.878;2024-01-07T01:31:39;98565.00;;;6.40
68012;BMP180;54794;48.348;7.878;2024-01-07T01:34:22;98566.00;;;6.30
68012;BMP180;54794;48.348;7.878;2024-01-07T01:37:10;98568.00;;;6.40
68012;BMP180;54794;48.348;7.878;2024-01-07T01:40:08;98574.00;;;6.10
68012;BMP180;54794;48.348;7.878;2024-01-07T01:43:26;98568.00;;;6.10
68012;BMP180;54794;48.348;7.878;2024-01-07T01:49:26;98568.00;;;6.00
68012;BMP180;54794;48.348;7.878;2024-01-07T01:52:38;98560.00;;;6.00
68012;BMP180;54794;48.348;7.878;2024-01-07T01:55:25;98554.00;;;6.20
68012;BMP180;54794;48.348;7.878;2024-01-07T01:58:20;98564.00;;;6.10
68012;BMP180;54794;48.348;7.878;2024-01-07T02:00:48;98570.00;;;6.00
68012;BMP180;54794;48.348;7.878;2024-01-07T02:03:42;98568.00;;;6.40
68012;BMP180;54794;48.348;7.878;2024-01-07T02:06:29;98570.00;;;6.30
68012;BMP180;54794;48.348;7.878;2024-01-07T02:09:12;98566.00;;;6.20
68012;BMP180;54794;48.348;7.878;2024-01-07T02:12:03;98568.00;;;6.20
68012;BMP180;54794;48.348;7.878;2024-01-07T02:15:18;98568.00;;;6.40
68012;BMP180;54794;48.348;7.878;2024-01-07T02:21:25;98569.00;;;6.10
68012;BMP180;54794;48.348;7.878;2024-01-07T02:24:23;98575.00;;;5.90
68012;BMP180;54794;48.348;7.878;2024-01-07T02:27:40;98565.00;;;5.90
68012;BMP180;54794;48.348;7.878;2024-01-07T02:30:22;98569.00;;;6.00
68012;BMP180;54794;48.348;7.878;2024-01-07T02:33:11;98568.00;;;6.00
68012;BMP180;54794;48.348;7.878;2024-01-07T02:38:53;98569.00;;;6.10
68012;BMP180;54794;48.348;7.878;2024-01-07T02:41:52;98577.00;;;6.10
68012;BMP180;54794;48.348;7.878;2024-01-07T02:44:31;98567.00;;;6.00
68012;BMP180;54794;48.348;7.878;2024-01-07T02:47:53;98571.00;;;5.90
68012;BMP180;54794;48.348;7.878;2024-01-07T02:53:39;98570.00;;;6.00
68012;BMP180;54794;48.348;7.878;2024-01-07T02:56:56;98573.00;;;5.90
68012;BMP180;54794;48.348;7.878;2024-01-07T03:00:15;98571.00;;;6.00
68012;BMP180;54794;48.348;7.878;2024-01-07T03:03:01;98576.00;;;6.00
68012;BMP180;54794;48.348;7.878;2024-01-07T03:05:43;98564.00;;;6.00
68012;BMP180;54794;48.348;7.878;2024-01-07T03:08:18;98563.00;;;5.90
68012;BMP180;54794;48.348;7.878;2024-01-07T03:11:20;98576.00;;;5.80
68012;BMP180;54794;48.348;7.878;2024-01-07T03:14:17;98581.00;;;5.90
68012;BMP180;54794;48.348;7.878;2024-01-07T03:29:33;98584.00;;;5.90
68012;BMP180;54794;48.348;7.878;2024-01-07T03:36:23;98589.00;;;5.70
68012;BMP180;54794;48.348;7.878;2024-01-07T03:39:10;98601.00;;;5.90
68012;BMP180;54794;48.348;7.878;2024-01-07T03:41:47;98588.00;;;5.90
68012;BMP180;54794;48.348;7.878;2024-01-07T03:48:32;98593.00;;;5.90
68012;BMP180;54794;48.348;7.878;2024-01-07T03:51:21;98589.00;;;5.90
68012;BMP180;54794;48.348;7.878;2024-01-07T03:54:37;98590.00;;;5.70
68012;BMP180;54794;48.348;7.878;2024-01-07T04:02:06;98602.00;;;5.50
68012;BMP180;54794;48.348;7.878;2024-01-07T04:04:51;98604.00;;;5.70
68012;BMP180;54794;48.348;7.878;2024-01-07T04:07:40;98609.00;;;5.70
68012;BMP180;54794;48.348;7.878;2024-01-07T04:10:15;98606.00;;;5.70
68012;BMP180;54794;48.348;7.878;2024-01-07T04:12:53;98602.00;;;5.70
68012;BMP180;54794;48.348;7.878;2024-01-07T04:15:45;98603.00;;;5.70
68012;BMP180;54794;48.348;7.878;2024-01-07T04:19:10;98616.00;;;5.50
68012;BMP180;54794;48.348;7.878;2024-01-07T04:21:52;98613.00;;;5.70
68012;BMP180;54794;48.348;7.878;2024-01-07T04:24:30;98610.00;;;5.80
68012;BMP180;54794;48.348;7.878;2024-01-07T04:27:59;98612.00;;;5.50
68012;BMP180;54794;48.348;7.878;2024-01-07T04:30:34;98609.00;;;5.60
68012;BMP180;54794;48.348;7.878;2024-01-07T04:36:16;98604.00;;;5.70
68012;BMP180;54794;48.348;7.878;2024-01-07T04:39:03;98602.00;;;5.80
68012;BMP180;54794;48.348;7.878;2024-01-07T04:44:44;98614.00;;;5.50
68012;BMP180;54794;48.348;7.878;2024-01-07T04:47:49;98619.00;;;5.60
68012;BMP180;54794;48.348;7.878;2024-01-07T04:50:42;98612.00;;;5.60
68012;BMP180;54794;48.348;7.878;2024-01-07T04:53:32;98618.00;;;5.80
68012;BMP180;54794;48.348;7.878;2024-01-07T04:56:46;98622.00;;;5.70
68012;BMP180;54794;48.348;7.878;2024-01-07T04:59:35;98616.00;;;5.90
68012;BMP180;54794;48.348;7.878;2024-01-07T05:02:27;98620.00;;;5.60
68012;BMP180;54794;48.348;7.878;2024-01-07T05:05:10;98632.00;;;5.50
68012;BMP180;54794;48.348;7.878;2024-01-07T05:08:03;98631.00;;;5.50
68012;BMP180;54794;48.348;7.878;2024-01-07T05:10:47;98633.00;;;5.50
68012;BMP180;54794;48.348;7.878;2024-01-07T05:13:31;98642.00;;;5.70
68012;BMP180;54794;48.348;7.878;2024-01-07T05:16:32;98638.00;;;5.60
68012;BMP180;54794;48.348;7.878;2024-01-07T05:20:00;98628.00;;;5.60
68012;BMP180;54794;48.348;7.878;2024-01-07T05:23:07;98639.00;;;5.50
68012;BMP180;54794;48.348;7.878;2024-01-07T05:25:50;98647.00;;;5.50
68012;BMP180;54794;48.348;7.878;2024-01-07T05:28:53;98652.00;;;5.60
68012;BMP180;54794;48.348;7.878;2024-01-07T05:31:59;98649.00;;;5.60
68012;BMP180;54794;48.348;7.878;2024-01-07T05:34:38;98650.00;;;5.60
68012;BMP180;54794;48.348;7.878;2024-01-07T05:37:11;98652.00;;;5.50
68012;BMP180;54794;48.348;7.878;2024-01-07T05:39:50;98650.00;;;5.50
68012;BMP180;54794;48.348;7.878;2024-01-07T05:42:24;98660.00;;;5.50
68012;BMP180;54794;48.348;7.878;2024-01-07T05:45:04;98662.00;;;5.60
68012;BMP180;54794;48.348;7.878;2024-01-07T05:47:53;98665.00;;;5.70
68012;BMP180;54794;48.348;7.878;2024-01-07T05:50:48;98664.00;;;5.60
68012;BMP180;54794;48.348;7.878;2024-01-07T05:53:33;98674.00;;;5.50
68012;BMP180;54794;48.348;7.878;2024-01-07T05:56:15;98659.00;;;5.60
68012;BMP180;54794;48.348;7.878;2024-01-07T05:59:06;98664.00;;;5.60
68012;BMP180;54794;48.348;7.878;2024-01-07T06:01:51;98673.00;;;5.60
68012;BMP180;54794;48.348;7.878;2024-01-07T06:04:29;98681.00;;;5.60
68012;BMP180;54794;48.348;7.878;2024-01-07T06:07:11;98676.00;;;5.60
68012;BMP180;54794;48.348;7.878;2024-01-07T06:10:01;98673.00;;;5.60
68012;BMP180;54794;48.348;7.878;2024-01-07T06:12:56;98682.00;;;5.50
68012;BMP180;54794;48.348;7.878;2024-01-07T06:15:37;98674.00;;;5.60
68012;BMP180;54794;48.348;7.878;2024-01-07T06:18:11;98673.00;;;5.60
68012;BMP180;54794;48.348;7.878;2024-01-07T06:20:51;98682.00;;;5.70
68012;BMP180;54794;48.348;7.878;2024-01-07T06:23:32;98682.00;;;5.50
68012;BMP180;54794;48.348;7.878;2024-01-07T06:26:24;98678.00;;;5.50
68012;BMP180;54794;48.348;7.878;2024-01-07T06:29:13;98703.00;;;5.70
68012;BMP180;54794;48.348;7.878;2024-01-07T06:32:03;98689.00;;;5.60
68012;BMP180;54794;48.348;7.878;2024-01-07T06:34:41;98700.00;;;5.50
68012;BMP180;54794;48.348;7.878;2024-01-07T06:37:29;98695.00;;;5.70
68012;BMP180;54794;48.348;7.878;2024-01-07T06:40:14;98710.00;;;5.50
68012;BMP180;54794;48.348;7.878;2024-01-07T06:43:27;98711.00;;;5.50
68012;BMP180;54794;48.348;7.878;2024-01-07T06:46:38;98707.00;;;5.40
68012;BMP180;54794;48.348;7.878;2024-01-07T06:49:46;98708.00;;;5.40
68012;BMP180;54794;48.348;7.878;2024-01-07T06:52:42;98720.00;;;5.60
68012;BMP180;54794;48.348;7.878;2024-01-07T06:55:38;98714.00;;;5.70
68012;BMP180;54794;48.348;7.878;2024-01-07T06:58:24;98719.00;;;5.50
68012;BMP180;54794;48.348;7.878;2024-01-07T07:01:20;98714.00;;;5.60
68012;BMP180;54794;48.348;7.878;2024-01-07T07:04:11;98715.00;;;5.40
68012;BMP180;54794;48.348;7.878;2024-01-07T07:07:09;98731.00;;;5.40
68012;BMP180;54794;48.348;7.878;2024-01-07T07:09:51;98729.00;;;5.50
68012;BMP180;54794;48.348;7.878;2024-01-07T07:12:20;98722.00;;;5.50
68012;BMP180;54794;48.348;7.878;2024-01-07T07:14:50;98720.00;;;5.40
68012;BMP180;54794;48.348;7.878;2024-01-07T07:17:36;98736.00;;;5.40
68012;BMP180;54794;48.348;7.878;2024-01-07T07:20:26;98738.00;;;5.50
68012;BMP180;54794;48.348;7.878;2024-01-07T07:22:58;98736.00;;;5.40
68012;BMP180;54794;48.348;7.878;2024-01-07T07:25:43;98739.00;;;5.40
68012;BMP180;54794;48.348;7.878;2024-01-07T07:28:24;98743.00;;;5.40
68012;BMP180;54794;48.348;7.878;2024-01-07T07:31:01;98737.00;;;5.40
68012;BMP180;54794;48.348;7.878;2024-01-07T07:33:33;98743.00;;;5.50
68012;BMP180;54794;48.348;7.878;2024-01-07T07:36:01;98747.00;;;5.60
68012;BMP180;54794;48.348;7.878;2024-01-07T07:38:30;98754.00;;;5.40
68012;BMP180;54794;48.348;7.878;2024-01-07T07:41:01;98755.00;;;5.60
68012;BMP180;54794;48.348;7.878;2024-01-07T07:43:31;98753.00;;;5.40
68012;BMP180;54794;48.348;7.878;2024-01-07T07:46:00;98764.00;;;5.40
68012;BMP180;54794;48.348;7.878;2024-01-07T07:48:37;98761.00;;;5.50
68012;BMP180;54794;48.348;7.878;2024-01-07T07:51:07;98773.00;;;5.30
68012;BMP180;54794;48.348;7.878;2024-01-07T07:53:38;98766.00;;;5.30
68012;BMP180;54794;48.348;7.878;2024-01-07T07:56:10;98755.00;;;5.40
68012;BMP180;54794;48.348;7.878;2024-01-07T07:59:10;98765.00;;;5.30
68012;BMP180;54794;48.348;7.878;2024-01-07T08:02:33;98763.00;;;5.50
68012;BMP180;54794;48.348;7.878;2024-01-07T08:05:34;98775.00;;;5.20
68012;BMP180;54794;48.348;7.878;2024-01-07T08:08:40;98781.00;;;5.30
68012;BMP180;54794;48.348;7.878;2024-01-07T08:14:24;98779.00;;;5.60
68012;BMP180;54794;48.348;7.878;2024-01-07T08:17:28;98785.00;;;5.50
68012;BMP180;54794;48.348;7.878;2024-01-07T08:19:58;98780.00;;;5.40
68012;BMP180;54794;48.348;7.878;2024-01-07T08:22:25;98794.00;;;5.40
68012;BMP180;54794;48.348;7.878;2024-01-07T08:24:52;98793.00;;;5.40
68012;BMP180;54794;48.348;7.878;2024-01-07T08:27:27;98795.00;;;5.30
68012;BMP180;54794;48.348;7.878;2024-01-07T08:30:00;98809.00;;;5.50
68012;BMP180;54794;48.348;7.878;2024-01-07T08:32:33;98785.00;;;5.50
68012;BMP180;54794;48.348;7.878;2024-01-07T08:35:03;98794.00;;;5.60
68012;BMP180;54794;48.348;7.878;2024-01-07T08:37:30;98799.00;;;5.60
68012;BMP180;54794;48.348;7.878;2024-01-07T08:39:59;98803.00;;;5.50
68012;BMP180;54794;48.348;7.878;2024-01-07T08:42:35;98795.00;;;5.40
68012;BMP180;54794;48.348;7.878;2024-01-07T08:45:03;98807.00;;;5.50
68012;BMP180;54794;48.348;7.878;2024-01-07T08:47:36;98809.00;;;5.40
68012;BMP180;54794;48.348;7.878;2024-01-07T08:50:09;98807.00;;;5.50
68012;BMP180;54794;48.348;7.878;2024-01-07T08:52:36;98782.00;;;5.60
68012;BMP180;54794;48.348;7.878;2024-01-07T08:55:09;98807.00;;;5.60
68012;BMP180;54794;48.348;7.878;2024-01-07T08:57:38;98817.00;;;5.70
68012;BMP180;54794;48.348;7.878;2024-01-07T09:00:09;98808.00;;;5.50
68012;BMP180;54794;48.348;7.878;2024-01-07T09:03:03;98818.00;;;5.70
68012;BMP180;54794;48.348;7.878;2024-01-07T09:05:50;98822.00;;;5.60
68012;BMP180;54794;48.348;7.878;2024-01-07T09:08:21;98816.00;;;5.60
68012;BMP180;54794;48.348;7.878;2024-01-07T09:10:48;98829.00;;;5.60
68012;BMP180;54794;48.348;7.878;2024-01-07T09:13:14;98824.00;;;5.60
68012;BMP180;54794;48.348;7.878;2024-01-07T09:15:42;98828.00;;;5.60
68012;BMP180;54794;48.348;7.878;2024-01-07T09:18:08;98838.00;;;5.70
68012;BMP180;54794;48.348;7.878;2024-01-07T09:20:36;98835.00;;;5.90
68012;BMP180;54794;48.348;7.878;2024-01-07T09:23:03;98832.00;;;5.90
68012;BMP180;54794;48.348;7.878;2024-01-07T09:25:30;98841.00;;;5.50
68012;BMP180;54794;48.348;7.878;2024-01-07T09:27:56;98839.00;;;5.70
68012;BMP180;54794;48.348;7.878;2024-01-07T09:30:23;98848.00;;;5.70
68012;BMP180;54794;48.348;7.878;2024-01-07T09:32:50;98845.00;;;5.80
68012;BMP180;54794;48.348;7.878;2024-01-07T09:35:17;98841.00;;;5.40
68012;BMP180;54794;48.348;7.878;2024-01-07T09:37:44;98851.00;;;5.50
68012;BMP180;54794;48.348;7.878;2024-01-07T09:40:12;98852.00;;;5.70
68012;BMP180;54794;48.348;7.878;2024-01-07T09:42:43;98861.00;;;5.70
68012;BMP180;54794;48.348;7.878;2024-01-07T09:45:13;98849.00;;;5.80
68012;BMP180;54794;48.348;7.878;2024-01-07T09:47:41;98855.00;;;6.00
68012;BMP180;54794;48.348;7.878;2024-01-07T09:50:13;98856.00;;;6.00
68012;BMP180;54794;48.348;7.878;2024-01-07T09:52:43;98852.00;;;5.80
68012;BMP180;54794;48.348;7.878;2024-01-07T09:55:25;98841.00;;;5.90
68012;BMP180;54794;48.348;7.878;2024-01-07T09:57:53;98850.00;;;5.80
68012;BMP180;54794;48.348;7.878;2024-01-07T10:00:21;98854.00;;;5.60
68012;BMP180;54794;48.348;7.878;2024-01-07T10:02:47;98844.00;;;5.80
68012;BMP180;54794;48.348;7.878;2024-01-07T10:05:14;98849.00;;;5.80
68012;BMP180;54794;48.348;7.878;2024-01-07T10:07:41;98855.00;;;5.80
68012;BMP180;54794;48.348;7.878;2024-01-07T10:10:17;98847.00;;;5.60
68012;BMP180;54794;48.348;7.878;2024-01-07T10:12:45;98846.00;;;5.70
68012;BMP180;54794;48.348;7.878;2024-01-07T10:15:14;98844.00;;;5.80
68012;BMP180;54794;48.348;7.878;2024-01-07T10:17:42;98845.00;;;5.90
68012;BMP180;54794;48.348;7.878;2024-01-07T10:20:12;98849.00;;;5.90
68012;BMP180;54794;48.348;7.878;2024-01-07T10:22:40;98844.00;;;5.80
68012;BMP180;54794;48.348;7.878;2024-01-07T10:25:07;98846.00;;;6.00
68012;BMP180;54794;48.348;7.878;2024-01-07T10:27:35;98839.00;;;5.80
68012;BMP180;54794;48.348;7.878;2024-01-07T10:30:03;98839.00;;;5.90
68012;BMP180;54794;48.348;7.878;2024-01-07T10:32:30;98851.00;;;5.80
68012;BMP180;54794;48.348;7.878;2024-01-07T10:35:12;98843.00;;;5.90
68012;BMP180;54794;48.348;7.878;2024-01-07T10:37:39;98845.00;;;5.80
68012;BMP180;54794;48.348;7.878;2024-01-07T10:40:11;98846.00;;;5.90
68012;BMP180;54794;48.348;7.878;2024-01-07T10:42:39;98844.00;;;5.90
68012;BMP180;54794;48.348;7.878;2024-01-07T10:45:07;98839.00;;;5.90
68012;BMP180;54794;48.348;7.878;2024-01-07T10:47:36;98838.00;;;5.90
68012;BMP180;54794;48.348;7.878;2024-01-07T10:50:04;98835.00;;;6.00
68012;BMP180;54794;48.348;7.878;2024-01-07T10:52:34;98837.00;;;5.90
68012;BMP180;54794;48.348;7.878;2024-01-07T10:55:08;98838.00;;;6.00
68012;BMP180;54794;48.348;7.878;2024-01-07T10:57:48;98841.00;;;6.00
68012;BMP180;54794;48.348;7.878;2024-01-07T11:00:17;98839.00;;;6.00
68012;BMP180;54794;48.348;7.878;2024-01-07T11:02:58;98840.00;;;6.10
68012;BMP180;54794;48.348;7.878;2024-01-07T11:06:05;98834.00;;;6.00
68012;BMP180;54794;48.348;7.878;2024-01-07T11:08:58;98835.00;;;6.10
68012;BMP180;54794;48.348;7.878;2024-01-07T11:11:39;98831.00;;;6.20
68012;BMP180;54794;48.348;7.878;2024-01-07T11:14:38;98837.00;;;5.90
68012;BMP180;54794;48.348;7.878;2024-01-07T11:17:12;98826.00;;;6.10
68012;BMP180;54794;48.348;7.878;2024-01-07T11:19:50;98837.00;;;6.30
68012;BMP180;54794;48.348;7.878;2024-01-07T11:22:24;98831.00;;;6.10
68012;BMP180;54794;48.348;7.878;2024-01-07T11:24:55;98833.00;;;6.30
68012;BMP180;54794;48.348;7.878;2024-01-07T11:27:25;98829.00;;;6.30
68012;BMP180;54794;48.348;7.878;2024-01-07T11:30:17;98837.00;;;6.40
68012;BMP180;54794;48.348;7.878;2024-01-07T11:32:47;98830.00;;;6.40
68012;BMP180;54794;48.348;7.878;2024-01-07T11:35:57;98828.00;;;6.50
68012;BMP180;54794;48.348;7.878;2024-01-07T11:38:26;98835.00;;;6.20
68012;BMP180;54794;48.348;7.878;2024-01-07T11:40:54;98830.00;;;6.20
68012;BMP180;54794;48.348;7.878;2024-01-07T11:43:23;98831.00;;;6.40
68012;BMP180;54794;48.348;7.878;2024-01-07T11:45:50;98824.00;;;6.30
68012;BMP180;54794;48.348;7.878;2024-01-07T11:48:20;98823.00;;;6.40
68012;BMP180;54794;48.348;7.878;2024-01-07T11:50:47;98826.00;;;6.60
68012;BMP180;54794;48.348;7.878;2024-01-07T11:53:20;98829.00;;;6.40
68012;BMP180;54794;48.348;7.878;2024-01-07T11:55:47;98818.00;;;6.40
68012;BMP180;54794;48.348;7.878;2024-01-07T11:58:14;98823.00;;;6.40
68012;BMP180;54794;48.348;7.878;2024-01-07T12:00:41;98831.00;;;6.50
68012;BMP180;54794;48.348;7.878;2024-01-07T12:03:08;98824.00;;;6.60
68012;BMP180;54794;48.348;7.878;2024-01-07T12:05:35;98826.00;;;6.30
68012;BMP180;54794;48.348;7.878;2024-01-07T12:08:02;98821.00;;;6.50
68012;BMP180;54794;48.348;7.878;2024-01-07T12:10:31;98821.00;;;6.40
68012;BMP180;54794;48.348;7.878;2024-01-07T12:12:58;98817.00;;;6.50
68012;BMP180;54794;48.348;7.878;2024-01-07T12:15:25;98815.00;;;6.50
68012;BMP180;54794;48.348;7.878;2024-01-07T12:17:59;98829.00;;;6.30
68012;BMP180;54794;48.348;7.878;2024-01-07T12:20:28;98826.00;;;6.40
68012;BMP180;54794;48.348;7.878;2024-01-07T12:23:09;98821.00;;;6.50
68012;BMP180;54794;48.348;7.878;2024-01-07T12:25:37;98829.00;;;6.40
68012;BMP180;54794;48.348;7.878;2024-01-07T12:28:07;98838.00;;;6.40
68012;BMP180;54794;48.348;7.878;2024-01-07T12:30:34;98832.00;;;6.50
68012;BMP180;54794;48.348;7.878;2024-01-07T12:33:04;98842.00;;;6.40
68012;BMP180;54794;48.348;7.878;2024-01-07T12:35:31;98826.00;;;6.40
68012;BMP180;54794;48.348;7.878;2024-01-07T12:37:59;98827.00;;;6.50
68012;BMP180;54794;48.348;7.878;2024-01-07T12:40:26;98827.00;;;6.40
68012;BMP180;54794;48.348;7.878;2024-01-07T12:42:53;98828.00;;;6.50
68012;BMP180;54794;48.348;7.878;2024-01-07T12:45:20;98821.00;;;6.40
68012;BMP180;54794;48.348;7.878;2024-01-07T12:47:47;98824.00;;;6.30
68012;BMP180;54794;48.348;7.878;2024-01-07T12:50:14;98818.00;;;6.60
68012;BMP180;54794;48.348;7.878;2024-01-07T12:52:42;98826.00;;;6.60
68012;BMP180;54794;48.348;7.878;2024-01-07T12:55:09;98828.00;;;6.60
68012;BMP180;54794;48.348;7.878;2024-01-07T12:57:36;98827.00;;;6.60
68012;BMP180;54794;48.348;7.878;2024-01-07T13:00:04;98829.00;;;6.60
68012;BMP180;54794;48.348;7.878;2024-01-07T13:03:30;98826.00;;;6.50
68012;BMP180;54794;48.348;7.878;2024-01-07T13:06:26;98828.00;;;6.60
68012;BMP180;54794;48.348;7.878;2024-01-07T13:08:54;98832.00;;;6.60
68012;BMP180;54794;48.348;7.878;2024-01-07T13:11:21;98843.00;;;6.30
68012;BMP180;54794;48.348;7.878;2024-01-07T13:13:48;98845.00;;;6.40
68012;BMP180;54794;48.348;7.878;2024-01-07T13:16:15;98854.00;;;6.30
68012;BMP180;54794;48.348;7.878;2024-01-07T13:18:42;98855.00;;;6.30
68012;BMP180;54794;48.348;7.878;2024-01-07T13:21:09;98856.00;;;6.30
68012;BMP180;54794;48.348;7.878;2024-01-07T13:23:36;98867.00;;;6.10
68012;BMP180;54794;48.348;7.878;2024-01-07T13:26:03;98863.00;;;6.40
68012;BMP180;54794;48.348;7.878;2024-01-07T13:28:32;98866.00;;;6.40
68012;BMP180;54794;48.348;7.878;2024-01-07T13:30:59;98873.00;;;6.20
68012;BMP180;54794;48.348;7.878;2024-01-07T13:33:26;98867.00;;;5.90
68012;BMP180;54794;48.348;7.878;2024-01-07T13:35:54;98866.00;;;6.10
68012;BMP180;54794;48.348;7.878;2024-01-07T13:38:21;98872.00;;;6.20
68012;BMP180;54794;48.348;7.878;2024-01-07T13:40:48;98872.00;;;6.10
68012;BMP180;54794;48.348;7.878;2024-01-07T13:43:14;98882.00;;;6.10
68012;BMP180;54794;48.348;7.878;2024-01-07T13:45:42;98873.00;;;6.00
68012;BMP180;54794;48.348;7.878;2024-01-07T13:48:09;98885.00;;;6.00
68012;BMP180;54794;48.348;7.878;2024-01-07T13:50:36;98875.00;;;5.90
68012;BMP180;54794;48.348;7.878;2024-01-07T13:53:03;98883.00;;;5.90
68012;BMP180;54794;48.348;7.878;2024-01-07T13:55:30;98882.00;;;6.00
68012;BMP180;54794;48.348;7.878;2024-01-07T13:57:57;98884.00;;;5.80
68012;BMP180;54794;48.348;7.878;2024-01-07T14:00:25;98882.00;;;6.00
68012;BMP180;54794;48.348;7.878;2024-01-07T14:02:52;98884.00;;;6.00
68012;BMP180;54794;48.348;7.878;2024-01-07T14:05:19;98884.00;;;5.80
68012;BMP180;54794;48.348;7.878;2024-01-07T14:07:47;98895.00;;;5.70
68012;BMP180;54794;48.348;7.878;2024-01-07T14:10:14;98895.00;;;5.70
68012;BMP180;54794;48.348;7.878;2024-01-07T14:12:42;98899.00;;;5.60
68012;BMP180;54794;48.348;7.878;2024-01-07T14:15:09;98901.00;;;5.60
68012;BMP180;54794;48.348;7.878;2024-01-07T14:17:36;98914.00;;;5.50
68012;BMP180;54794;48.348;7.878;2024-01-07T14:20:03;98906.00;;;5.40
68012;BMP180;54794;48.348;7.878;2024-01-07T14:22:30;98910.00;;;5.30
68012;BMP180;54794;48.348;7.878;2024-01-07T14:24:57;98917.00;;;5.40
68012;BMP180;54794;48.348;7.878;2024-01-07T14:27:24;98923.00;;;5.40
68012;BMP180;54794;48.348;7.878;2024-01-07T14:29:51;98924.00;;;5.20
68012;BMP180;54794;48.348;7.878;2024-01-07T14:32:17;98924.00;;;5.20
68012;BMP180;54794;48.348;7.878;2024-01-07T14:34:44;98923.00;;;5.30
68012;BMP180;54794;48.348;7.878;2024-01-07T14:37:11;98932.00;;;5.10
68012;BMP180;54794;48.348;7.878;2024-01-07T14:39:39;98924.00;;;5.20
68012;BMP180;54794;48.348;7.878;2024-01-07T14:42:06;98939.00;;;5.20
68012;BMP180;54794;48.348;7.878;2024-01-07T14:44:33;98929.00;;;5.20
68012;BMP180;54794;48.348;7.878;2024-01-07T14:47:14;98931.00;;;5.20
68012;BMP180;54794;48.348;7.878;2024-01-07T14:49:41;98931.00;;;5.30
68012;BMP180;54794;48.348;7.878;2024-01-07T14:52:09;98941.00;;;5.30
68012;BMP180;54794;48.348;7.878;2024-01-07T14:54:36;98940.00;;;5.20
68012;BMP180;54794;48.348;7.878;2024-01-07T14:57:04;98953.00;;;5.10
68012;BMP180;54794;48.348;7.878;2024-01-07T14:59:33;98946.00;;;4.90
68012;BMP180;54794;48.348;7.878;2024-01-07T15:01:59;98953.00;;;5.10
68012;BMP180;54794;48.348;7.878;2024-01-07T15:04:26;98958.00;;;5.00
68012;BMP180;54794;48.348;7.878;2024-01-07T15:06:54;98957.00;;;5.00
68012;BMP180;54794;48.348;7.878;2024-01-07T15:09:23;98965.00;;;5.10
68012;BMP180;54794;48.348;7.878;2024-01-07T15:11:49;98961.00;;;5.00
68012;BMP180;54794;48.348;7.878;2024-01-07T15:14:17;98964.00;;;5.00
68012;BMP180;54794;48.348;7.878;2024-01-07T15:16:44;98975.00;;;5.00
68012;BMP180;54794;48.348;7.878;2024-01-07T15:19:15;98984.00;;;4.80
68012;BMP180;54794;48.348;7.878;2024-01-07T15:21:42;98987.00;;;4.90
68012;BMP180;54794;48.348;7.878;2024-01-07T15:24:10;98977.00;;;5.10
68012;BMP180;54794;48.348;7.878;2024-01-07T15:26:36;98978.00;;;5.00
68012;BMP180;54794;48.348;7.878;2024-01-07T15:29:05;98992.00;;;5.00
68012;BMP180;54794;48.348;7.878;2024-01-07T15:31:32;98995.00;;;5.00
68012;BMP180;54794;48.348;7.878;2024-01-07T15:34:01;98989.00;;;5.00
68012;BMP180;54794;48.348;7.878;2024-01-07T15:36:28;98985.00;;;5.00
68012;BMP180;54794;48.348;7.878;2024-01-07T15:38:55;99003.00;;;4.90
68012;BMP180;54794;48.348;7.878;2024-01-07T15:41:22;99002.00;;;4.70
68012;BMP180;54794;48.348;7.878;2024-01-07T15:43:49;99013.00;;;4.80
68012;BMP180;54794;48.348;7.878;2024-01-07T15:46:16;99013.00;;;4.80
68012;BMP180;54794;48.348;7.878;2024-01-07T15:48:42;99017.00;;;4.70
68012;BMP180;54794;48.348;7.878;2024-01-07T15:51:10;99010.00;;;4.80
68012;BMP180;54794;48.348;7.878;2024-01-07T15:53:36;99021.00;;;4.70
68012;BMP180;54794;48.348;7.878;2024-01-07T15:56:04;99018.00;;;4.60
68012;BMP180;54794;48.348;7.878;2024-01-07T15:58:33;99031.00;;;4.70
68012;BMP180;54794;48.348;7.878;2024-01-07T16:01:03;99030.00;;;4.50
68012;BMP180;54794;48.348;7.878;2024-01-07T16:03:31;99030.00;;;4.80
68012;BMP180;54794;48.348;7.878;2024-01-07T16:05:59;99040.00;;;4.80
68012;BMP180;54794;48.348;7.878;2024-01-07T16:08:26;99050.00;;;4.70
68012;BMP180;54794;48.348;7.878;2024-01-07T16:10:57;99048.00;;;4.60
68012;BMP180;54794;48.348;7.878;2024-01-07T16:13:28;99047.00;;;4.80
68012;BMP180;54794;48.348;7.878;2024-01-07T16:15:55;99053.00;;;4.70
68012;BMP180;54794;48.348;7.878;2024-01-07T16:18:22;99050.00;;;4.90